createdAt,value
2022-08-08T00:00:51.102Z,102420.94
2022-08-08T00:02:33.301Z,102421.59
2022-08-08T00:06:00.797Z,102425.88
2022-08-08T00:08:37.299Z,102432.59
2022-08-08T00:11:46.475Z,102430.69
2022-08-08T00:15:09.977Z,102429.53
2022-08-08T00:18:04.727Z,102433.72
2022-08-08T00:20:56.646Z,102430.03
2022-08-08T00:23:47.588Z,102435.25
2022-08-08T00:26:40.319Z,102433.56
2022-08-08T00:29:45.416Z,102444.91
2022-08-08T00:32:38.447Z,102442.25
2022-08-08T00:35:38.904Z,102438.56
2022-08-08T00:38:44.434Z,102443.72
2022-08-08T00:42:30.303Z,102441.03
2022-08-08T00:45:41.778Z,102445.19
2022-08-08T00:48:59.461Z,102446.03
2022-08-08T00:52:20.093Z,102441.47
2022-08-08T00:55:36.281Z,102448.22
2022-08-08T00:59:11.422Z,102450.84
2022-08-08T01:03:58.547Z,102450.63
2022-08-08T01:06:16.910Z,102446.72
2022-08-08T01:09:36.263Z,102452.03
2022-08-08T01:13:16.715Z,102446.72
2022-08-08T01:16:28.400Z,102443.25
2022-08-08T01:19:41.875Z,102447.59
2022-08-08T01:23:55.689Z,102445.66
2022-08-08T01:26:27.308Z,102449.81
2022-08-08T01:29:35.832Z,102445.88
2022-08-08T01:33:16.338Z,102445.81
2022-08-08T01:36:25.828Z,102448.28
2022-08-08T01:39:41.982Z,102449.72
2022-08-08T01:42:53.869Z,102458.50
2022-08-08T01:45:41.063Z,102447.88
2022-08-08T01:48:58.798Z,102457.72
2022-08-08T01:52:43.591Z,102459.38
2022-08-08T01:56:28.908Z,102459.56
2022-08-08T01:58:51.288Z,102459.84
2022-08-08T02:02:09.866Z,102466.72
2022-08-08T02:05:23.266Z,102465.25
2022-08-08T02:08:47.154Z,102465.28
2022-08-08T02:11:52.875Z,102466.88
2022-08-08T02:15:05.149Z,102465.94
2022-08-08T02:18:32.827Z,102455.34
2022-08-08T02:21:44.721Z,102461.38
2022-08-08T02:24:45.511Z,102462.16
2022-08-08T02:28:01.859Z,102454.19
2022-08-08T02:31:07.149Z,102457.03
2022-08-08T02:34:35.279Z,102465.94
2022-08-08T02:37:53.176Z,102460.59
2022-08-08T02:41:58.169Z,102462.34
2022-08-08T02:45:00.067Z,102469.47
2022-08-08T02:48:09.121Z,102470.25
2022-08-08T02:51:13.067Z,102463.97
2022-08-08T02:54:50.449Z,102463.88
2022-08-08T02:57:44.543Z,102463.97
2022-08-08T03:00:51.388Z,102471.03
2022-08-08T03:05:03.590Z,102467.38
2022-08-08T03:08:13.710Z,102473.59
2022-08-08T03:12:01.479Z,102464.72
2022-08-08T03:15:56.874Z,102464.72
2022-08-08T03:18:31.126Z,102465.59
2022-08-08T03:21:18.180Z,102465.44
2022-08-08T03:24:04.212Z,102474.88
2022-08-08T03:27:10.128Z,102472.38
2022-08-08T03:30:07.593Z,102476.75
2022-08-08T03:33:56.154Z,102475.91
2022-08-08T03:36:27.886Z,102483.81
2022-08-08T03:39:16.810Z,102489.84
2022-08-08T03:42:26.746Z,102490.59
2022-08-08T03:46:04.800Z,102492.50
2022-08-08T03:49:09.720Z,102491.50
2022-08-08T03:51:50.450Z,102495.00
2022-08-08T03:55:02.019Z,102497.47
2022-08-08T03:58:35.645Z,102494.03
2022-08-08T04:01:20.779Z,102498.22
2022-08-08T04:04:07.478Z,102499.81
2022-08-08T04:07:01.442Z,102496.31
2022-08-08T04:10:02.797Z,102499.81
2022-08-08T04:12:55.280Z,102505.06
2022-08-08T04:15:55.054Z,102507.72
2022-08-08T04:18:48.946Z,102505.75
2022-08-08T04:21:41.456Z,102503.91
2022-08-08T04:24:32.158Z,102507.28
2022-08-08T04:28:02.862Z,102520.41
2022-08-08T04:30:28.272Z,102517.47
2022-08-08T04:33:22.860Z,102520.69
2022-08-08T04:36:10.610Z,102518.78
2022-08-08T04:39:47.697Z,102517.88
2022-08-08T04:42:02.452Z,102519.19
2022-08-08T04:44:48.091Z,102524.50
2022-08-08T04:47:36.722Z,102532.22
2022-08-08T04:50:38.556Z,102529.47
2022-08-08T04:53:52.641Z,102531.28
2022-08-08T04:56:35.404Z,102532.22
2022-08-08T04:59:27.005Z,102534.88
2022-08-08T05:02:16.228Z,102549.97
2022-08-08T05:05:06.421Z,102541.09
2022-08-08T05:08:02.767Z,102540.28
2022-08-08T05:10:49.071Z,102540.28
2022-08-08T05:13:55.260Z,102542.88
2022-08-08T05:16:55.000Z,102544.50
2022-08-08T05:20:11.903Z,102541.19
2022-08-08T05:22:57.207Z,102541.97
2022-08-08T05:25:48.760Z,102545.47
2022-08-08T05:28:56.899Z,102543.59
2022-08-08T05:32:03.392Z,102553.22
2022-08-08T05:34:49.887Z,102558.59
2022-08-08T05:37:53.836Z,102564.03
2022-08-08T05:41:04.672Z,102565.06
2022-08-08T05:44:04.947Z,102573.53
2022-08-08T05:46:54.720Z,102567.63
2022-08-08T05:49:54.148Z,102563.19
2022-08-08T05:52:44.232Z,102565.78
2022-08-08T05:56:07.794Z,102559.69
2022-08-08T05:58:54.192Z,102564.91
2022-08-08T06:01:58.097Z,102561.38
2022-08-08T06:04:56.332Z,102571.03
2022-08-08T06:07:47.606Z,102564.13
2022-08-08T06:10:35.082Z,102571.06
2022-08-08T06:13:35.822Z,102573.72
2022-08-08T06:16:30.356Z,102575.63
2022-08-08T06:19:41.545Z,102578.41
2022-08-08T06:22:35.360Z,102574.09
2022-08-08T06:25:33.186Z,102575.06
2022-08-08T06:28:35.269Z,102579.56
2022-08-08T06:31:22.847Z,102585.75
2022-08-08T06:34:36.959Z,102584.97
2022-08-08T06:37:28.281Z,102582.50
2022-08-08T06:40:30.018Z,102583.47
2022-08-08T06:43:30.523Z,102590.63
2022-08-08T06:46:31.070Z,102594.38
2022-08-08T06:49:19.228Z,102588.31
2022-08-08T06:52:27.650Z,102589.38
2022-08-08T06:55:16.570Z,102596.63
2022-08-08T06:58:04.160Z,102596.75
2022-08-08T07:00:52.114Z,102595.97
2022-08-08T07:04:36.882Z,102596.16
2022-08-08T07:07:12.262Z,102593.72
2022-08-08T07:10:08.260Z,102601.75
2022-08-08T07:13:06.102Z,102594.03
2022-08-08T07:16:12.004Z,102595.19
2022-08-08T07:19:06.373Z,102601.47
2022-08-08T07:22:05.347Z,102605.13
2022-08-08T07:25:06.792Z,102606.94
2022-08-08T07:28:07.702Z,102608.75
2022-08-08T07:30:58.773Z,102598.41
2022-08-08T07:33:53.811Z,102601.09
2022-08-08T07:36:50.677Z,102590.84
2022-08-08T07:39:45.460Z,102592.72
2022-08-08T07:42:45.071Z,102596.38
2022-08-08T07:45:34.735Z,102593.13
2022-08-08T07:48:36.581Z,102599.38
2022-08-08T07:51:45.483Z,102603.84
2022-08-08T07:54:58.875Z,102598.81
2022-08-08T07:58:01.987Z,102603.34
2022-08-08T08:00:51.945Z,102599.06
2022-08-08T08:03:51.302Z,102593.09
2022-08-08T08:06:43.883Z,102596.84
2022-08-08T08:09:39.322Z,102589.06
2022-08-08T08:12:35.608Z,102590.13
2022-08-08T08:15:31.792Z,102590.25
2022-08-08T08:18:32.224Z,102601.66
2022-08-08T08:21:20.875Z,102591.13
2022-08-08T08:24:32.261Z,102592.97
2022-08-08T08:27:22.030Z,102591.28
2022-08-08T08:30:12.974Z,102594.88
2022-08-08T08:32:59.136Z,102588.00
2022-08-08T08:36:20.242Z,102587.22
2022-08-08T08:38:54.384Z,102588.16
2022-08-08T08:41:51.632Z,102585.53
2022-08-08T08:44:38.036Z,102590.84
2022-08-08T08:47:26.476Z,102589.13
2022-08-08T08:50:31.859Z,102598.81
2022-08-08T08:53:54.695Z,102589.22
2022-08-08T08:56:32.419Z,102592.72
2022-08-08T09:00:01.461Z,102587.47
2022-08-08T09:02:41.699Z,102595.44
2022-08-08T09:05:53.860Z,102596.31
2022-08-08T09:08:44.481Z,102588.47
2022-08-08T09:11:47.267Z,102587.59
2022-08-08T09:14:47.577Z,102591.16
2022-08-08T09:17:41.981Z,102584.97
2022-08-08T09:21:56.279Z,102585.88
2022-08-08T09:23:47.890Z,102583.25
2022-08-08T09:26:51.593Z,102584.16
2022-08-08T09:29:56.964Z,102575.38
2022-08-08T09:33:12.947Z,102580.69
2022-08-08T09:36:03.585Z,102566.59
2022-08-08T09:38:56.185Z,102570.13
2022-08-08T09:41:54.802Z,102554.28
2022-08-08T09:45:15.539Z,102558.63
2022-08-08T09:48:17.992Z,102558.59
2022-08-08T09:51:09.441Z,102547.13
2022-08-08T09:54:09.411Z,102550.59
2022-08-08T09:57:03.177Z,102551.50
2022-08-08T10:00:28.820Z,102547.94
2022-08-08T10:03:02.820Z,102542.69
2022-08-08T10:05:49.672Z,102547.06
2022-08-08T10:08:44.302Z,102536.50
2022-08-08T10:12:28.182Z,102539.97
2022-08-08T10:14:39.611Z,102532.00
2022-08-08T10:17:56.380Z,102529.38
2022-08-08T10:20:57.409Z,102531.97
2022-08-08T10:23:58.798Z,102529.22
2022-08-08T10:26:59.493Z,102528.25
2022-08-08T10:30:03.954Z,102529.09
2022-08-08T10:33:00.935Z,102535.25
2022-08-08T10:36:07.420Z,102537.81
2022-08-08T10:39:07.081Z,102541.38
2022-08-08T10:42:15.382Z,102533.38
2022-08-08T10:45:08.850Z,102533.28
2022-08-08T10:47:58.918Z,102542.84
2022-08-08T10:50:45.220Z,102540.19
2022-08-08T10:53:56.397Z,102539.31
2022-08-08T10:56:43.753Z,102535.78
2022-08-08T10:59:31.241Z,102529.63
2022-08-08T11:02:33.551Z,102533.97
2022-08-08T11:05:19.377Z,102532.13
2022-08-08T11:08:37.219Z,102526.66
2022-08-08T11:11:32.650Z,102527.38
2022-08-08T11:14:26.315Z,102522.81
2022-08-08T11:17:14.936Z,102521.75
2022-08-08T11:20:11.020Z,102521.66
2022-08-08T11:23:01.245Z,102522.44
2022-08-08T11:25:56.048Z,102530.38
2022-08-08T11:28:44.986Z,102535.66
2022-08-08T11:31:43.597Z,102527.66
2022-08-08T11:34:52.445Z,102534.41
2022-08-08T11:38:39.212Z,102536.81
2022-08-08T11:40:52.491Z,102545.44
2022-08-08T11:43:42.161Z,102531.00
2022-08-08T11:46:31.358Z,102534.00
2022-08-08T11:49:17.629Z,102526.50
2022-08-08T11:52:03.683Z,102531.28
2022-08-08T11:54:50.125Z,102536.06
2022-08-08T11:57:40.052Z,102533.97
2022-08-08T12:00:28.879Z,102534.50
2022-08-08T12:03:21.327Z,102535.19
2022-08-08T12:06:15.147Z,102532.44
2022-08-08T12:09:17.036Z,102530.94
2022-08-08T12:12:04.839Z,102530.41
2022-08-08T12:15:01.106Z,102523.97
2022-08-08T12:17:50.863Z,102520.91
2022-08-08T12:20:39.276Z,102531.13
2022-08-08T12:23:43.503Z,102531.28
2022-08-08T12:26:44.661Z,102511.94
2022-08-08T12:29:41.066Z,102513.84
2022-08-08T12:32:42.206Z,102513.84
2022-08-08T12:35:39.668Z,102527.44
2022-08-08T12:38:31.234Z,102524.03
2022-08-08T12:41:35.414Z,102518.19
2022-08-08T12:44:30.235Z,102511.50
2022-08-08T12:47:57.896Z,102518.50
2022-08-08T12:50:46.680Z,102504.81
2022-08-08T12:53:37.852Z,102499.41
2022-08-08T12:56:35.985Z,102502.81
2022-08-08T12:59:36.292Z,102504.16
2022-08-08T13:02:35.840Z,102505.91
2022-08-08T13:05:26.583Z,102511.16
2022-08-08T13:08:53.095Z,102502.78
2022-08-08T13:12:27.354Z,102501.88
2022-08-08T13:14:53.303Z,102504.94
2022-08-08T13:18:08.747Z,102506.91
2022-08-08T13:20:48.854Z,102499.09
2022-08-08T13:23:41.251Z,102505.66
2022-08-08T13:26:32.362Z,102513.44
2022-08-08T13:29:18.210Z,102514.41
2022-08-08T13:32:07.373Z,102514.91
2022-08-08T13:34:58.950Z,102510.75
2022-08-08T13:38:04.696Z,102519.25
2022-08-08T13:40:51.591Z,102521.25
2022-08-08T13:43:37.707Z,102518.19
2022-08-08T13:46:26.686Z,102505.59
2022-08-08T13:50:35.972Z,102509.38
2022-08-08T13:52:37.598Z,102507.28
2022-08-08T13:55:29.352Z,102502.69
2022-08-08T13:58:22.239Z,102506.44
2022-08-08T14:01:41.995Z,102510.63
2022-08-08T14:04:35.554Z,102509.50
2022-08-08T14:07:23.261Z,102516.06
2022-08-08T14:10:17.138Z,102507.75
2022-08-08T14:13:06.294Z,102504.81
2022-08-08T14:16:16.048Z,102509.25
2022-08-08T14:19:02.977Z,102506.59
2022-08-08T14:21:56.447Z,102510.16
2022-08-08T14:24:48.760Z,102507.09
2022-08-08T14:27:37.690Z,102513.06
2022-08-08T14:30:34.081Z,102516.06
2022-08-08T14:33:36.571Z,102525.19
2022-08-08T14:36:36.852Z,102512.66
2022-08-08T14:39:25.061Z,102501.81
2022-08-08T14:42:30.912Z,102492.78
2022-08-08T14:45:18.345Z,102497.53
2022-08-08T14:48:16.588Z,102500.41
2022-08-08T14:51:06.761Z,102501.00
2022-08-08T14:53:55.127Z,102509.22
2022-08-08T14:56:42.680Z,102509.72
2022-08-08T14:59:44.589Z,102503.59
2022-08-08T15:02:35.560Z,102514.81
2022-08-08T15:05:33.999Z,102508.66
2022-08-08T15:08:35.432Z,102501.94
2022-08-08T15:11:24.230Z,102502.63
2022-08-08T15:14:13.697Z,102510.94
2022-08-08T15:17:00.127Z,102501.66
2022-08-08T15:19:48.506Z,102497.41
2022-08-08T15:22:35.648Z,102500.91
2022-08-08T15:25:29.359Z,102493.44
2022-08-08T15:28:33.257Z,102495.69
2022-08-08T15:31:56.250Z,102494.03
2022-08-08T15:34:31.946Z,102499.53
2022-08-08T15:37:19.147Z,102502.09
2022-08-08T15:40:11.246Z,102503.34
2022-08-08T15:43:00.568Z,102494.50
2022-08-08T15:45:49.476Z,102496.22
2022-08-08T15:48:36.403Z,102492.63
2022-08-08T15:51:22.916Z,102489.81
2022-08-08T15:54:18.875Z,102493.91
2022-08-08T15:57:20.678Z,102487.19
2022-08-08T16:00:26.844Z,102484.50
2022-08-08T16:03:12.999Z,102480.94
2022-08-08T16:06:01.889Z,102494.75
2022-08-08T16:09:02.379Z,102483.03
2022-08-08T16:13:14.106Z,102479.72
2022-08-08T16:14:59.430Z,102484.59
2022-08-08T16:18:06.725Z,102476.72
2022-08-08T16:20:51.335Z,102486.75
2022-08-08T16:23:36.783Z,102486.78
2022-08-08T16:26:34.633Z,102488.50
2022-08-08T16:29:37.012Z,102492.59
2022-08-08T16:32:27.491Z,102502.28
2022-08-08T16:35:13.626Z,102493.53
2022-08-08T16:38:04.410Z,102491.66
2022-08-08T16:40:49.958Z,102495.31
2022-08-08T16:43:48.937Z,102496.38
2022-08-08T16:46:46.326Z,102494.09
2022-08-08T16:49:38.309Z,102497.47
2022-08-08T16:55:06.672Z,102495.94
2022-08-08T16:55:53.141Z,102499.09
2022-08-08T16:58:37.332Z,102504.53
2022-08-08T17:01:25.275Z,102508.63
2022-08-08T17:04:16.489Z,102514.53
2022-08-08T17:07:02.869Z,102510.63
2022-08-08T17:09:52.237Z,102512.41
2022-08-08T17:12:38.587Z,102514.38
2022-08-08T17:15:27.135Z,102514.72
2022-08-08T17:18:32.758Z,102511.00
2022-08-08T17:21:18.605Z,102505.34
2022-08-08T17:24:22.036Z,102516.53
2022-08-08T17:27:12.953Z,102526.47
2022-08-08T17:30:08.485Z,102519.63
2022-08-08T17:34:37.412Z,102523.97
2022-08-08T17:36:12.484Z,102515.72
2022-08-08T17:39:45.984Z,102515.91
2022-08-08T17:42:11.809Z,102520.16
2022-08-08T17:44:58.623Z,102517.44
2022-08-08T17:47:44.243Z,102515.56
2022-08-08T17:50:36.621Z,102518.50
2022-08-08T17:53:31.263Z,102532.56
2022-08-08T17:56:28.079Z,102523.38
2022-08-08T17:59:17.266Z,102521.84
2022-08-08T18:02:04.141Z,102521.38
2022-08-08T18:04:50.728Z,102523.88
2022-08-08T18:08:03.413Z,102520.25
2022-08-08T18:10:42.169Z,102532.69
2022-08-08T18:13:28.127Z,102532.66
2022-08-08T18:16:23.677Z,102527.31
2022-08-08T18:19:17.957Z,102527.31
2022-08-08T18:22:05.145Z,102536.97
2022-08-08T18:24:51.247Z,102534.34
2022-08-08T18:27:38.312Z,102534.63
2022-08-08T18:30:29.161Z,102537.50
2022-08-08T18:33:36.751Z,102539.66
2022-08-08T18:36:23.226Z,102533.69
2022-08-08T18:39:10.232Z,102544.50
2022-08-08T18:42:03.670Z,102539.94
2022-08-08T18:44:55.640Z,102540.31
2022-08-08T18:47:42.846Z,102545.34
2022-08-08T18:50:29.409Z,102541.00
2022-08-08T18:53:16.821Z,102545.63
2022-08-08T18:56:05.841Z,102542.16
2022-08-08T18:58:53.838Z,102546.28
2022-08-08T19:02:26.886Z,102554.75
2022-08-08T19:04:45.080Z,102559.69
2022-08-08T19:07:37.301Z,102552.28
2022-08-08T19:10:23.597Z,102551.69
2022-08-08T19:13:21.598Z,102549.19
2022-08-08T19:16:19.154Z,102557.34
2022-08-08T19:19:09.806Z,102562.00
2022-08-08T19:21:59.054Z,102564.84
2022-08-08T19:26:02.242Z,102565.94
2022-08-08T19:27:57.450Z,102560.81
2022-08-08T19:30:51.399Z,102566.19
2022-08-08T19:34:05.133Z,102565.41
2022-08-08T19:36:58.759Z,102569.88
2022-08-08T19:39:46.296Z,102578.75
2022-08-08T19:42:36.736Z,102581.44
2022-08-08T19:45:59.880Z,102585.84
2022-08-08T19:48:30.843Z,102594.72
2022-08-08T19:51:16.841Z,102596.50
2022-08-08T19:54:19.494Z,102594.75
2022-08-08T19:57:07.763Z,102596.53
2022-08-08T19:59:53.387Z,102602.66
2022-08-08T20:02:39.572Z,102610.59
2022-08-08T20:06:12.730Z,102601.75
2022-08-08T20:08:32.357Z,102606.09
2022-08-08T20:11:21.802Z,102620.16
2022-08-08T20:14:31.855Z,102620.09
2022-08-08T20:17:13.657Z,102628.84
2022-08-08T20:20:16.084Z,102634.88
2022-08-08T20:23:12.321Z,102622.53
2022-08-08T20:26:01.558Z,102626.88
2022-08-08T20:28:47.937Z,102636.44
2022-08-08T20:32:07.134Z,102639.91
2022-08-08T20:34:47.508Z,102638.94
2022-08-08T20:37:46.951Z,102634.41
2022-08-08T20:40:41.148Z,102638.69
2022-08-08T20:43:43.553Z,102632.50
2022-08-08T20:46:33.301Z,102635.84
2022-08-08T20:49:19.301Z,102628.78
2022-08-08T20:52:07.846Z,102643.66
2022-08-08T20:54:54.290Z,102637.41
2022-08-08T20:57:43.744Z,102634.63
2022-08-08T21:00:35.970Z,102628.47
2022-08-08T21:03:29.710Z,102628.28
2022-08-08T21:06:15.893Z,102631.72
2022-08-08T21:09:01.655Z,102629.00
2022-08-08T21:11:51.394Z,102634.19
2022-08-08T21:14:37.828Z,102633.19
2022-08-08T21:17:25.146Z,102625.22
2022-08-08T21:20:11.270Z,102631.34
2022-08-08T21:22:57.156Z,102630.31
2022-08-08T21:25:43.574Z,102632.03
2022-08-08T21:28:35.480Z,102631.91
2022-08-08T21:31:23.494Z,102637.91
2022-08-08T21:34:09.301Z,102644.75
2022-08-08T21:37:11.230Z,102642.03
2022-08-08T21:40:05.089Z,102646.41
2022-08-08T21:42:51.126Z,102647.19
2022-08-08T21:48:00.745Z,102650.59
2022-08-08T21:48:49.204Z,102655.75
2022-08-08T21:54:17.078Z,102649.63
2022-08-08T21:54:58.113Z,102664.75
2022-08-08T21:58:05.294Z,102662.09
2022-08-08T22:00:54.908Z,102658.25
2022-08-08T22:03:40.534Z,102665.09
2022-08-08T22:06:31.101Z,102659.88
2022-08-08T22:09:17.374Z,102660.75
2022-08-08T22:12:09.394Z,102674.19
2022-08-08T22:14:55.669Z,102674.00
2022-08-08T22:17:45.598Z,102661.41
2022-08-08T22:20:31.765Z,102661.28
2022-08-08T22:23:17.611Z,102654.00
2022-08-08T22:26:27.167Z,102651.38
2022-08-08T22:29:57.145Z,102650.41
2022-08-08T22:32:14.840Z,102646.78
2022-08-08T22:35:00.319Z,102645.03
2022-08-08T22:37:54.179Z,102645.84
2022-08-08T22:40:40.983Z,102635.84
2022-08-08T22:43:26.691Z,102647.19
2022-08-08T22:46:17.448Z,102662.66
2022-08-08T22:49:02.908Z,102675.09
2022-08-08T22:51:51.309Z,102676.91
2022-08-08T22:54:53.949Z,102680.66
2022-08-08T22:57:49.370Z,102675.28
2022-08-08T23:00:35.459Z,102668.63
2022-08-08T23:03:21.179Z,102656.00
2022-08-08T23:06:07.042Z,102665.56
2022-08-08T23:08:58.606Z,102670.81
2022-08-08T23:12:29.130Z,102662.81
2022-08-08T23:14:56.166Z,102675.28
2022-08-08T23:17:54.154Z,102666.19
2022-08-08T23:20:44.541Z,102659.78
2022-08-08T23:23:48.742Z,102663.03
2022-08-08T23:26:41.425Z,102669.22
2022-08-08T23:29:39.783Z,102668.31
2022-08-08T23:32:27.787Z,102676.97
2022-08-08T23:35:17.187Z,102688.50
2022-08-08T23:38:03.986Z,102686.59
2022-08-08T23:40:53.192Z,102676.00
2022-08-08T23:43:45.618Z,102678.44
2022-08-08T23:48:59.924Z,102675.63
2022-08-08T23:49:38.747Z,102680.59
2022-08-08T23:52:24.145Z,102687.47
2022-08-08T23:55:19.379Z,102694.38
2022-08-08T23:58:08.087Z,102686.38
